createdAt,value
2019-06-10T00:00:41.933Z,19.38
2019-06-10T00:03:11.799Z,19.30
2019-06-10T00:05:41.459Z,19.23
2019-06-10T00:08:11.975Z,19.25
2019-06-10T00:10:42.268Z,19.33
2019-06-10T00:13:11.921Z,19.18
2019-06-10T00:15:41.090Z,19.21
2019-06-10T00:18:33.330Z,19.25
2019-06-10T00:20:40.845Z,19.21
2019-06-10T00:23:12.181Z,19.13
2019-06-10T00:25:41.288Z,19.13
2019-06-10T00:28:12.154Z,19.09
2019-06-10T00:30:41.129Z,19.10
2019-06-10T00:33:12.489Z,19.04
2019-06-10T00:35:41.237Z,19.02
2019-06-10T00:38:13.768Z,18.85
2019-06-10T00:40:41.419Z,18.77
2019-06-10T00:43:13.289Z,18.74
2019-06-10T00:45:41.048Z,18.68
2019-06-10T00:48:21.402Z,18.70
2019-06-10T00:50:41.397Z,18.70
2019-06-10T00:53:14.114Z,18.62
2019-06-10T00:55:41.560Z,18.67
2019-06-10T00:58:13.683Z,18.68
2019-06-10T01:00:41.460Z,18.60
2019-06-10T01:03:14.628Z,18.58
2019-06-10T01:05:42.090Z,18.64
2019-06-10T01:08:13.891Z,18.71
2019-06-10T01:10:43.877Z,18.80
2019-06-10T01:13:12.289Z,18.80
2019-06-10T01:15:47.547Z,18.86
2019-06-10T01:18:32.019Z,18.66
2019-06-10T01:20:46.124Z,18.73
2019-06-10T01:23:15.712Z,18.64
2019-06-10T01:25:44.318Z,18.57
2019-06-10T01:28:16.493Z,18.59
2019-06-10T01:30:42.965Z,18.58
2019-06-10T01:33:14.378Z,18.53
2019-06-10T01:35:41.847Z,18.56
2019-06-10T01:38:12.848Z,18.49
2019-06-10T01:40:42.165Z,18.38
2019-06-10T01:43:13.382Z,18.39
2019-06-10T01:45:41.832Z,18.47
2019-06-10T01:48:12.103Z,18.51
2019-06-10T01:50:40.731Z,18.48
2019-06-10T01:53:10.138Z,18.40
2019-06-10T01:55:41.487Z,18.40
2019-06-10T01:58:10.700Z,18.36
2019-06-10T02:01:01.443Z,18.30
2019-06-10T02:03:31.468Z,18.31
2019-06-10T02:06:05.581Z,18.16
2019-06-10T02:08:34.022Z,18.19
2019-06-10T02:11:02.457Z,18.17
2019-06-10T02:13:33.221Z,18.07
2019-06-10T02:16:03.349Z,18.03
2019-06-10T02:18:32.393Z,18.05
2019-06-10T02:21:01.461Z,17.95
2019-06-10T02:23:31.348Z,17.98
2019-06-10T02:26:01.512Z,17.97
2019-06-10T02:28:31.664Z,17.87
2019-06-10T02:31:03.079Z,17.79
2019-06-10T02:33:36.186Z,17.85
2019-06-10T02:36:04.858Z,17.81
2019-06-10T02:38:39.071Z,17.78
2019-06-10T02:41:04.801Z,17.77
2019-06-10T02:43:37.505Z,17.64
2019-06-10T02:46:05.918Z,17.67
2019-06-10T02:48:35.450Z,17.66
2019-06-10T02:51:08.050Z,17.61
2019-06-10T02:53:37.534Z,17.57
2019-06-10T02:56:09.548Z,17.56
2019-06-10T02:58:39.834Z,17.58
2019-06-10T03:01:08.335Z,17.57
2019-06-10T03:03:43.793Z,17.44
2019-06-10T03:06:08.833Z,17.38
2019-06-10T03:08:37.198Z,17.29
2019-06-10T03:11:08.633Z,17.32
2019-06-10T03:13:37.048Z,17.30
2019-06-10T03:16:16.358Z,17.16
2019-06-10T03:18:44.769Z,16.99
2019-06-10T03:21:13.194Z,16.76
2019-06-10T03:23:42.675Z,16.73
2019-06-10T03:26:12.418Z,16.70
2019-06-10T03:28:42.799Z,16.86
2019-06-10T03:31:15.181Z,17.00
2019-06-10T03:33:46.324Z,16.91
2019-06-10T03:36:12.419Z,16.67
2019-06-10T03:38:43.213Z,16.61
2019-06-10T03:41:12.418Z,16.85
2019-06-10T03:43:43.025Z,17.00
2019-06-10T03:46:13.563Z,17.13
2019-06-10T03:48:43.374Z,17.24
2019-06-10T03:51:12.602Z,17.21
2019-06-10T03:53:42.707Z,17.15
2019-06-10T03:56:12.908Z,17.20
2019-06-10T03:58:43.129Z,17.16
2019-06-10T04:01:12.398Z,16.94
2019-06-10T04:03:42.792Z,16.87
2019-06-10T04:06:13.015Z,16.94
2019-06-10T04:08:43.370Z,17.01
2019-06-10T04:11:12.267Z,17.12
2019-06-10T04:13:43.056Z,17.11
2019-06-10T04:16:13.133Z,16.93
2019-06-10T04:18:43.030Z,16.88
2019-06-10T04:21:12.971Z,16.83
2019-06-10T04:23:42.345Z,16.90
2019-06-10T04:26:12.773Z,16.97
2019-06-10T04:28:42.934Z,17.05
2019-06-10T04:31:14.552Z,17.01
2019-06-10T04:33:42.967Z,17.06
2019-06-10T04:36:13.419Z,17.12
2019-06-10T04:38:43.159Z,17.13
2019-06-10T04:41:12.636Z,16.98
2019-06-10T04:43:43.230Z,16.87
2019-06-10T04:46:12.712Z,16.75
2019-06-10T04:48:42.733Z,16.87
2019-06-10T04:51:12.976Z,16.82
2019-06-10T04:53:43.493Z,16.92
2019-06-10T04:56:12.342Z,16.99
2019-06-10T04:58:43.315Z,17.07
2019-06-10T05:01:12.890Z,17.06
2019-06-10T05:03:43.349Z,17.14
2019-06-10T05:06:12.401Z,17.09
2019-06-10T05:08:42.536Z,17.13
2019-06-10T05:11:13.772Z,17.17
2019-06-10T05:13:42.971Z,17.22
2019-06-10T05:16:12.530Z,17.27
2019-06-10T05:18:42.487Z,17.39
2019-06-10T05:21:13.052Z,17.37
2019-06-10T05:23:42.937Z,17.47
2019-06-10T05:26:13.394Z,17.62
2019-06-10T05:28:43.283Z,17.80
2019-06-10T05:31:13.195Z,17.83
2019-06-10T05:33:42.659Z,17.69
2019-06-10T05:36:13.123Z,17.90
2019-06-10T05:38:43.594Z,17.94
2019-06-10T05:41:13.428Z,17.77
2019-06-10T05:43:43.078Z,17.75
2019-06-10T05:46:13.396Z,17.78
2019-06-10T05:48:43.834Z,17.74
2019-06-10T05:51:12.450Z,17.85
2019-06-10T05:53:42.677Z,17.93
2019-06-10T05:56:12.873Z,17.96
2019-06-10T05:58:43.565Z,17.89
2019-06-10T06:01:13.160Z,17.91
2019-06-10T06:03:43.999Z,17.82
2019-06-10T06:06:12.514Z,17.94
2019-06-10T06:08:42.938Z,17.98
2019-06-10T06:11:12.579Z,18.01
2019-06-10T06:13:43.264Z,18.13
2019-06-10T06:16:12.679Z,18.24
2019-06-10T06:18:42.293Z,18.32
2019-06-10T06:21:22.722Z,18.44
2019-06-10T06:23:43.403Z,18.56
2019-06-10T06:26:16.226Z,18.59
2019-06-10T06:28:42.998Z,18.59
2019-06-10T06:31:14.812Z,18.60
2019-06-10T06:33:43.596Z,18.57
2019-06-10T06:36:13.046Z,18.55
2019-06-10T06:38:43.856Z,18.56
2019-06-10T06:41:13.691Z,18.62
2019-06-10T06:43:45.019Z,18.74
2019-06-10T06:46:12.840Z,18.82
2019-06-10T06:48:43.915Z,18.73
2019-06-10T06:51:13.047Z,18.76
2019-06-10T06:53:48.326Z,18.75
2019-06-10T06:56:12.587Z,18.70
2019-06-10T06:58:43.345Z,18.80
2019-06-10T07:01:14.345Z,18.95
2019-06-10T07:03:45.089Z,19.11
2019-06-10T07:06:13.831Z,19.16
2019-06-10T07:08:57.772Z,19.21
2019-06-10T07:11:17.492Z,19.37
2019-06-10T07:13:46.176Z,19.56
2019-06-10T07:16:14.661Z,19.68
2019-06-10T07:18:49.594Z,19.85
2019-06-10T07:21:13.399Z,19.89
2019-06-10T07:23:45.563Z,20.08
2019-06-10T07:26:12.719Z,20.25
2019-06-10T07:28:45.702Z,20.36
2019-06-10T07:31:20.912Z,20.44
2019-06-10T07:33:46.802Z,20.57
2019-06-10T07:36:13.121Z,20.73
2019-06-10T07:38:47.002Z,20.78
2019-06-10T07:41:13.255Z,20.91
2019-06-10T07:43:47.523Z,20.88
2019-06-10T07:46:13.358Z,21.03
2019-06-10T07:48:46.224Z,21.00
2019-06-10T07:51:13.523Z,21.10
2019-06-10T07:53:46.100Z,21.12
2019-06-10T07:56:12.879Z,21.27
2019-06-10T07:58:46.993Z,21.36
2019-06-10T08:01:13.174Z,21.43
2019-06-10T08:03:45.994Z,21.41
2019-06-10T08:06:12.617Z,21.32
2019-06-10T08:08:43.946Z,21.26
2019-06-10T08:11:13.662Z,21.26
2019-06-10T08:13:45.615Z,21.34
2019-06-10T08:16:13.042Z,21.37
2019-06-10T08:19:12.253Z,21.36
2019-06-10T08:21:12.281Z,21.31
2019-06-10T08:23:44.654Z,21.47
2019-06-10T08:26:12.663Z,21.54
2019-06-10T08:28:42.437Z,21.45
2019-06-10T08:31:12.561Z,21.35
2019-06-10T08:33:44.322Z,21.52
2019-06-10T08:36:13.303Z,21.62
2019-06-10T08:38:45.062Z,21.64
2019-06-10T08:41:12.259Z,21.71
2019-06-10T08:43:43.772Z,21.61
2019-06-10T08:46:13.287Z,21.84
2019-06-10T08:48:45.294Z,21.92
2019-06-10T08:51:13.574Z,21.96
2019-06-10T08:53:44.996Z,22.09
2019-06-10T08:56:14.512Z,22.37
2019-06-10T08:58:46.300Z,22.21
2019-06-10T09:01:13.490Z,21.91
2019-06-10T09:03:45.300Z,22.40
2019-06-10T09:06:13.267Z,22.89
2019-06-10T09:08:45.644Z,23.18
2019-06-10T09:11:12.919Z,23.38
2019-06-10T09:13:45.451Z,23.40
2019-06-10T09:16:19.063Z,23.42
2019-06-10T09:18:47.699Z,23.63
2019-06-10T09:21:13.841Z,23.70
2019-06-10T09:23:50.378Z,22.89
2019-06-10T09:26:14.038Z,22.60
2019-06-10T09:28:47.173Z,22.66
2019-06-10T09:31:14.091Z,23.14
2019-06-10T09:33:49.893Z,23.39
2019-06-10T09:36:12.955Z,23.68
2019-06-10T09:38:45.399Z,23.88
2019-06-10T09:41:14.109Z,24.01
2019-06-10T09:43:46.884Z,23.60
2019-06-10T09:46:14.567Z,24.02
2019-06-10T09:48:46.951Z,24.24
2019-06-10T09:51:13.601Z,24.34
2019-06-10T09:53:50.123Z,24.41
2019-06-10T09:56:12.607Z,24.46
2019-06-10T09:58:44.710Z,24.62
2019-06-10T10:01:13.355Z,24.76
2019-06-10T10:03:45.415Z,25.04
2019-06-10T10:06:15.796Z,24.91
2019-06-10T10:08:46.062Z,25.20
2019-06-10T10:11:13.127Z,25.37
2019-06-10T10:13:44.129Z,25.38
2019-06-10T10:16:13.170Z,25.59
2019-06-10T10:18:45.832Z,24.80
2019-06-10T10:21:13.138Z,25.28
2019-06-10T10:23:51.282Z,24.85
2019-06-10T10:26:13.130Z,25.18
2019-06-10T10:28:42.827Z,25.37
2019-06-10T10:31:13.124Z,25.76
2019-06-10T10:33:42.640Z,25.76
2019-06-10T10:36:13.231Z,25.76
2019-06-10T10:38:42.600Z,25.93
2019-06-10T10:41:13.252Z,25.44
2019-06-10T10:43:43.695Z,25.72
2019-06-10T10:46:13.957Z,25.90
2019-06-10T10:48:42.996Z,26.00
2019-06-10T10:51:13.094Z,26.02
2019-06-10T10:53:46.781Z,26.11
2019-06-10T10:56:12.944Z,26.03
2019-06-10T10:58:43.598Z,26.30
2019-06-10T11:01:14.986Z,26.45
2019-06-10T11:03:44.059Z,27.03
2019-06-10T11:06:13.078Z,27.28
2019-06-10T11:08:43.093Z,27.40
2019-06-10T11:11:13.789Z,27.14
2019-06-10T11:13:43.379Z,27.18
2019-06-10T11:16:11.931Z,27.52
2019-06-10T11:18:42.262Z,28.37
2019-06-10T11:21:13.026Z,29.25
2019-06-10T11:23:43.219Z,28.97
2019-06-10T11:26:12.518Z,28.48
2019-06-10T11:28:42.862Z,28.23
2019-06-10T11:31:13.928Z,28.25
2019-06-10T11:33:43.578Z,28.43
2019-06-10T11:36:13.492Z,28.86
2019-06-10T11:38:41.725Z,29.13
2019-06-10T11:41:13.282Z,29.12
2019-06-10T11:43:42.654Z,28.63
2019-06-10T11:46:12.817Z,28.90
2019-06-10T11:48:43.175Z,29.23
2019-06-10T11:51:13.059Z,28.94
2019-06-10T11:53:43.885Z,28.59
2019-06-10T11:56:13.088Z,28.27
2019-06-10T11:58:42.527Z,27.95
2019-06-10T12:01:13.498Z,27.74
2019-06-10T12:03:43.215Z,27.84
2019-06-10T12:06:13.527Z,27.68
2019-06-10T12:08:43.407Z,27.49
2019-06-10T12:11:12.851Z,26.96
2019-06-10T12:13:42.730Z,27.21
2019-06-10T12:17:05.611Z,27.62
2019-06-10T12:18:42.641Z,27.85
2019-06-10T12:21:13.089Z,28.41
2019-06-10T12:23:43.489Z,29.23
2019-06-10T12:26:11.576Z,29.97
2019-06-10T12:28:40.009Z,30.25
2019-06-10T12:31:08.424Z,30.24
2019-06-10T12:33:36.859Z,29.95
2019-06-10T12:36:07.062Z,29.58
2019-06-10T12:38:35.947Z,29.13
2019-06-10T12:41:09.540Z,29.03
2019-06-10T12:43:35.066Z,28.85
2019-06-10T12:46:03.712Z,28.86
2019-06-10T12:48:34.156Z,28.85
2019-06-10T12:51:07.949Z,28.95
2019-06-10T12:53:32.737Z,28.89
2019-06-10T12:56:07.378Z,28.13
2019-06-10T12:58:33.475Z,28.04
2019-06-10T13:01:04.488Z,28.26
2019-06-10T13:03:32.956Z,27.87
2019-06-10T13:06:07.241Z,28.24
2019-06-10T13:08:36.012Z,28.33
2019-06-10T13:11:04.564Z,28.33
2019-06-10T13:13:33.045Z,28.43
2019-06-10T13:16:06.659Z,28.50
2019-06-10T13:18:31.720Z,28.86
2019-06-10T13:21:04.314Z,28.99
2019-06-10T13:23:32.649Z,29.16
2019-06-10T13:26:04.301Z,29.13
2019-06-10T13:28:32.470Z,29.08
2019-06-10T13:31:03.806Z,28.86
2019-06-10T13:33:34.029Z,28.96
2019-06-10T13:36:06.361Z,28.85
2019-06-10T13:38:33.315Z,28.72
2019-06-10T13:41:02.857Z,28.59
2019-06-10T13:43:33.819Z,28.62
2019-06-10T13:46:03.113Z,28.54
2019-06-10T13:48:32.273Z,28.59
2019-06-10T13:51:03.861Z,28.27
2019-06-10T13:53:30.933Z,28.34
2019-06-10T13:56:24.726Z,28.26
2019-06-10T13:58:29.506Z,27.92
2019-06-10T14:00:57.961Z,27.77
2019-06-10T14:03:26.374Z,27.81
2019-06-10T14:05:59.245Z,27.69
2019-06-10T14:08:24.968Z,27.70
2019-06-10T14:10:54.227Z,27.83
2019-06-10T14:13:23.845Z,27.70
2019-06-10T14:15:53.453Z,27.74
2019-06-10T14:18:23.298Z,27.73
2019-06-10T14:20:53.069Z,27.36
2019-06-10T14:23:22.241Z,27.37
2019-06-10T14:25:52.605Z,27.27
2019-06-10T14:28:38.500Z,27.08
2019-06-10T14:30:53.755Z,27.11
2019-06-10T14:33:23.372Z,27.20
2019-06-10T14:35:53.451Z,26.99
2019-06-10T14:38:22.209Z,26.75
2019-06-10T14:40:52.544Z,26.37
2019-06-10T14:43:23.401Z,26.09
2019-06-10T14:45:53.483Z,25.67
2019-06-10T14:48:23.258Z,25.40
2019-06-10T14:50:51.876Z,25.14
2019-06-10T14:53:23.039Z,24.10
2019-06-10T14:55:53.370Z,22.33
2019-06-10T14:58:23.141Z,20.86
2019-06-10T15:00:54.342Z,20.06
2019-06-10T15:03:21.141Z,19.51
2019-06-10T15:05:52.661Z,19.48
2019-06-10T15:08:23.194Z,20.03
2019-06-10T15:10:53.025Z,20.41
2019-06-10T15:13:23.430Z,20.59
2019-06-10T15:15:54.135Z,20.57
2019-06-10T15:18:23.791Z,20.58
2019-06-10T15:20:54.726Z,20.62
2019-06-10T15:23:23.459Z,20.24
2019-06-10T15:25:56.010Z,20.07
2019-06-10T15:28:23.501Z,20.35
2019-06-10T15:30:52.735Z,20.17
2019-06-10T15:33:23.736Z,19.88
2019-06-10T15:35:53.390Z,19.71
2019-06-10T15:38:23.204Z,19.75
2019-06-10T15:40:53.123Z,19.72
2019-06-10T15:43:34.230Z,19.81
2019-06-10T15:46:03.376Z,19.86
2019-06-10T15:48:32.079Z,19.95
2019-06-10T15:51:02.814Z,20.11
2019-06-10T15:53:32.792Z,20.14
2019-06-10T15:56:27.083Z,20.18
2019-06-10T15:58:32.093Z,20.38
2019-06-10T16:01:02.874Z,20.68
2019-06-10T16:03:32.922Z,20.82
2019-06-10T16:06:02.922Z,20.78
2019-06-10T16:08:32.492Z,20.58
2019-06-10T16:11:03.059Z,20.31
2019-06-10T16:13:32.242Z,20.21
2019-06-10T16:16:03.382Z,20.53
2019-06-10T16:18:32.978Z,20.72
2019-06-10T16:21:04.444Z,20.81
2019-06-10T16:23:34.047Z,20.77
2019-06-10T16:26:02.703Z,20.78
2019-06-10T16:28:32.837Z,20.96
2019-06-10T16:31:02.879Z,21.06
2019-06-10T16:33:33.477Z,20.69
2019-06-10T16:36:03.191Z,20.63
2019-06-10T16:38:32.803Z,20.48
2019-06-10T16:41:03.600Z,20.57
2019-06-10T16:43:33.464Z,20.72
2019-06-10T16:46:03.329Z,20.79
2019-06-10T16:48:33.540Z,20.72
2019-06-10T16:51:03.269Z,20.16
2019-06-10T16:53:35.350Z,20.12
2019-06-10T16:56:08.269Z,20.24
2019-06-10T16:58:39.029Z,20.22
2019-06-10T17:01:07.462Z,20.26
2019-06-10T17:03:35.906Z,20.03
2019-06-10T17:06:04.930Z,19.81
2019-06-10T17:08:33.758Z,19.64
2019-06-10T17:11:03.398Z,19.69
2019-06-10T17:13:32.115Z,19.70
2019-06-10T17:16:03.199Z,19.72
2019-06-10T17:18:33.354Z,19.60
2019-06-10T17:21:03.531Z,19.21
2019-06-10T17:23:36.035Z,19.19
2019-06-10T17:26:01.384Z,19.19
2019-06-10T17:28:35.820Z,19.34
2019-06-10T17:31:00.215Z,19.66
2019-06-10T17:33:30.423Z,19.78
2019-06-10T17:35:58.869Z,19.96
2019-06-10T17:38:27.307Z,19.96
2019-06-10T17:40:55.765Z,20.16
2019-06-10T17:43:25.172Z,20.21
2019-06-10T17:45:53.756Z,19.99
2019-06-10T17:48:29.164Z,19.85
2019-06-10T17:50:52.763Z,19.85
2019-06-10T17:53:24.328Z,20.06
2019-06-10T17:55:52.708Z,20.17
2019-06-10T17:58:33.424Z,20.09
2019-06-10T18:00:53.024Z,19.92
2019-06-10T18:03:23.216Z,19.86
2019-06-10T18:05:53.312Z,19.85
2019-06-10T18:08:23.491Z,20.04
2019-06-10T18:10:53.592Z,20.24
2019-06-10T18:13:24.691Z,20.24
2019-06-10T18:15:53.719Z,20.37
2019-06-10T18:18:22.144Z,20.51
2019-06-10T18:20:53.556Z,20.49
2019-06-10T18:23:23.042Z,20.27
2019-06-10T18:25:52.730Z,19.76
2019-06-10T18:28:22.633Z,20.13
2019-06-10T18:30:53.213Z,20.06
2019-06-10T18:33:23.096Z,20.01
2019-06-10T18:35:53.264Z,19.72
2019-06-10T18:38:23.409Z,19.62
2019-06-10T18:40:53.629Z,19.49
2019-06-10T18:43:22.892Z,19.36
2019-06-10T18:45:53.357Z,19.11
2019-06-10T18:48:23.215Z,19.13
2019-06-10T18:50:53.321Z,19.34
2019-06-10T18:53:23.420Z,19.22
2019-06-10T18:55:54.515Z,18.86
2019-06-10T18:58:22.487Z,19.21
2019-06-10T19:01:03.652Z,19.19
2019-06-10T19:03:24.321Z,19.00
2019-06-10T19:05:53.202Z,18.89
2019-06-10T19:08:22.373Z,19.13
2019-06-10T19:10:53.316Z,19.28
2019-06-10T19:13:22.552Z,18.82
2019-06-10T19:15:53.141Z,18.93
2019-06-10T19:18:23.357Z,18.78
2019-06-10T19:20:53.091Z,18.58
2019-06-10T19:23:22.707Z,18.47
2019-06-10T19:25:53.008Z,18.60
2019-06-10T19:28:22.779Z,18.41
2019-06-10T19:30:53.343Z,18.71
2019-06-10T19:33:23.674Z,18.61
2019-06-10T19:35:55.196Z,18.67
2019-06-10T19:38:23.621Z,18.31
2019-06-10T19:40:52.481Z,18.38
2019-06-10T19:43:21.026Z,18.34
2019-06-10T19:45:49.462Z,18.30
2019-06-10T19:48:17.918Z,18.77
2019-06-10T19:50:50.116Z,18.95
2019-06-10T19:53:16.822Z,19.01
2019-06-10T19:55:46.831Z,18.96
2019-06-10T19:58:16.861Z,19.06
2019-06-10T20:00:51.157Z,19.00
2019-06-10T20:03:18.789Z,18.97
2019-06-10T20:05:47.550Z,18.69
2019-06-10T20:08:16.012Z,18.76
2019-06-10T20:10:46.103Z,18.95
2019-06-10T20:13:14.543Z,19.17
2019-06-10T20:15:44.982Z,19.34
2019-06-10T20:18:13.150Z,19.39
2019-06-10T20:20:45.610Z,19.29
2019-06-10T20:23:11.818Z,19.23
2019-06-10T20:25:42.898Z,19.21
2019-06-10T20:28:10.593Z,19.22
2019-06-10T20:30:39.146Z,19.14
2019-06-10T20:33:07.590Z,18.86
2019-06-10T20:35:37.406Z,18.69
2019-06-10T20:38:06.038Z,18.43
2019-06-10T20:40:35.492Z,18.33
2019-06-10T20:43:04.389Z,18.17
2019-06-10T20:45:33.357Z,18.22
2019-06-10T20:48:02.765Z,18.03
2019-06-10T20:50:32.774Z,17.95
2019-06-10T20:53:14.229Z,17.96
2019-06-10T20:55:41.407Z,17.98
2019-06-10T20:58:07.365Z,18.09
2019-06-10T21:00:41.976Z,18.05
2019-06-10T21:03:08.698Z,18.15
2019-06-10T21:05:37.151Z,18.08
2019-06-10T21:08:06.170Z,18.22
2019-06-10T21:10:39.868Z,18.48
2019-06-10T21:13:08.403Z,18.60
2019-06-10T21:15:37.410Z,18.35
2019-06-10T21:18:06.520Z,18.23
2019-06-10T21:20:35.021Z,18.07
2019-06-10T21:23:03.635Z,18.10
2019-06-10T21:25:32.667Z,17.76
2019-06-10T21:28:03.313Z,17.75
2019-06-10T21:30:38.452Z,17.65
2019-06-10T21:33:03.663Z,17.73
2019-06-10T21:35:33.663Z,17.92
2019-06-10T21:38:02.122Z,17.91
2019-06-10T21:40:32.947Z,17.81
2019-06-10T21:43:02.972Z,17.80
2019-06-10T21:45:32.626Z,17.72
2019-06-10T21:48:02.223Z,17.70
2019-06-10T21:50:33.333Z,17.63
2019-06-10T21:53:03.079Z,17.74
2019-06-10T21:55:33.050Z,17.75
2019-06-10T21:58:03.853Z,17.82
2019-06-10T22:00:51.635Z,17.77
2019-06-10T22:03:04.988Z,17.76
2019-06-10T22:05:33.472Z,17.80
2019-06-10T22:08:03.212Z,17.64
2019-06-10T22:10:33.600Z,17.66
2019-06-10T22:13:03.171Z,17.72
2019-06-10T22:15:33.412Z,17.83
2019-06-10T22:18:02.298Z,17.71
2019-06-10T22:20:32.407Z,17.70
2019-06-10T22:23:02.634Z,17.71
2019-06-10T22:25:32.836Z,17.56
2019-06-10T22:28:02.792Z,17.53
2019-06-10T22:30:32.120Z,17.59
2019-06-10T22:33:03.217Z,17.59
2019-06-10T22:35:31.183Z,17.61
2019-06-10T22:37:59.613Z,17.60
2019-06-10T22:40:28.093Z,17.72
2019-06-10T22:42:56.760Z,17.71
2019-06-10T22:45:25.425Z,17.75
2019-06-10T22:47:55.318Z,17.84
2019-06-10T22:50:24.262Z,17.66
2019-06-10T22:52:54.573Z,17.89
2019-06-10T22:55:22.847Z,17.86
2019-06-10T22:57:54.673Z,17.78
2019-06-10T23:00:22.289Z,17.87
2019-06-10T23:02:53.337Z,17.88
2019-06-10T23:05:23.289Z,18.02
2019-06-10T23:07:53.297Z,17.88
2019-06-10T23:10:22.897Z,17.88
2019-06-10T23:12:54.754Z,17.61
2019-06-10T23:15:23.456Z,17.63
2019-06-10T23:17:55.287Z,17.58
2019-06-10T23:20:23.138Z,17.71
2019-06-10T23:22:55.261Z,17.86
2019-06-10T23:25:22.212Z,17.92
2019-06-10T23:27:54.752Z,18.00
2019-06-10T23:30:23.678Z,17.98
2019-06-10T23:32:55.715Z,17.89
2019-06-10T23:35:23.233Z,17.80
2019-06-10T23:37:55.024Z,17.82
2019-06-10T23:40:23.405Z,17.83
2019-06-10T23:42:53.179Z,17.73
2019-06-10T23:45:22.361Z,17.74
2019-06-10T23:47:52.936Z,17.92
2019-06-10T23:50:22.551Z,18.08
2019-06-10T23:52:54.211Z,18.20
2019-06-10T23:55:22.770Z,18.31
2019-06-10T23:57:52.965Z,18.33
